Acacia Rubra — 9HA4222 — position and weather

sailwx.info

Track history (hours):
 
Tides and Currents Weather Stations Pressure Air Temp Water Temp Dewpoint Dewpoint Depression Visibility Wind Speed Wind Dir Waves Ship Positions

Acacia Rubra

Last reported at 2018-Jun-19 15:51 UTC. Time now 2018-Jun-19 16:21 UTC.
Position N 36°28' W 009°11'.

Length 107 m; draft 6.3 m.

Type: Tanker. MMSI: 249374000.

Date/timePositionNaut miles runAvg speedWind from/ knotsBaromVisibWave heightAir tempDewpointWater temp
2018-Jun-19 15:51N 36°28' W 009°11'412.3
2018-Jun-19 15:30N 36°29' W 009°16'9911.4
2018-Jun-19 06:53N 38°01' W 010°00'511.9
2018-Jun-19 06:29N 38°06' W 010°02'611.9
2018-Jun-19 06:00N 38°12' W 010°03'612.2
2018-Jun-19 05:28N 38°18' W 010°05'612.1
2018-Jun-19 05:00N 38°23' W 010°07'611.9
2018-Jun-19 04:30N 38°29' W 010°08'612.0
2018-Jun-19 03:58N 38°35' W 010°10'511.8
2018-Jun-19 03:30N 38°41' W 010°12'612.3
2018-Jun-19 03:00N 38°47' W 010°12'612.2
2018-Jun-19 02:30N 38°53' W 010°12'612.0
2018-Jun-19 02:00N 38°59' W 010°12'612.1
2018-Jun-19 01:30N 39°05' W 010°12'612.3
2018-Jun-19 01:00N 39°11' W 010°12'612.2
2018-Jun-19 00:30N 39°17' W 010°12'611.9
2018-Jun-19 00:00N 39°23' W 010°12'612.2
2018-Jun-18 23:30N 39°29' W 010°12'611.8
2018-Jun-18 23:00N 39°35' W 010°12'611.9
2018-Jun-18 22:30N 39°41' W 010°12'612.2
2018-Jun-18 22:00N 39°47' W 010°12'611.9
2018-Jun-18 21:30N 39°53' W 010°12'612.1
2018-Jun-18 21:00N 39°59' W 010°12'911.9
2018-Jun-18 20:16N 40°08' W 010°12'412.4
2018-Jun-18 19:58N 40°12' W 010°12'  
2018-Jun-15 00:43N 48°29' W 006°31'135 8.6
2018-Jun-14 08:59N 50°39' W 005°35'4 9.0
2018-Jun-14 08:30N 50°42' W 005°31'5 8.7
2018-Jun-14 07:56N 50°46' W 005°26'3 8.1
2018-Jun-14 07:30N 50°49' W 005°22'4 7.7
2018-Jun-14 07:00N 50°52' W 005°18'3 7.0
2018-Jun-14 06:30N 50°54' W 005°15'3 6.9
2018-Jun-14 06:00N 50°57' W 005°11'3 6.5
2018-Jun-14 05:30N 50°59' W 005°08'3 6.2
2018-Jun-14 05:00N 51°02' W 005°04'3 6.0
2018-Jun-14 04:30N 51°04' W 005°01'3 5.8
2018-Jun-14 04:00N 51°06' W 004°58'3 5.5
2018-Jun-14 03:28N 51°08' W 004°55'3 5.6
2018-Jun-14 03:00N 51°10' W 004°53'4 6.3
2018-Jun-14 02:25N 51°13' W 004°49'3 6.6
2018-Jun-14 02:00N 51°15' W 004°46'14 8.4
2018-Jun-14 00:18N 51°17' W 004°23'310.4
2018-Jun-14 00:00N 51°17' W 004°18'3613.3
2018-Jun-13 21:17N 51°21' W 003°21'413.7
2018-Jun-13 21:00N 51°22' W 003°15'612.2
2018-Jun-13 20:28N 51°25' W 003°05'612.8
2018-Jun-13 20:01N 51°30' W 003°00'4 4.4
2018-Jun-13 19:11N 51°33' W 002°59'0 1.5
2018-Jun-13 18:53N 51°34' W 002°59'0 0.0
2018-Jun-11 16:44N 51°34' W 002°59'0 1.2
2018-Jun-11 16:27N 51°33' W 002°59'0 0.5
2018-Jun-11 15:39N 51°33' W 002°59'1 2.4
2018-Jun-11 15:24N 51°32' W 002°59'2 6.2
2018-Jun-11 15:00N 51°30' W 002°60'5 8.1
2018-Jun-11 14:24N 51°26' W 003°04'711.4
2018-Jun-11 13:46N 51°22' W 003°13'47 4.7
2018-Jun-11 03:46N 51°17' W 004°28'3 9.9
2018-Jun-11 03:30N 51°17' W 004°32'810.1
2018-Jun-11 02:44N 51°16' W 004°44'311.1
2018-Jun-11 02:30N 51°14' W 004°47'611.1
2018-Jun-11 02:00N 51°10' W 004°53'510.9
2018-Jun-11 01:30N 51°05' W 004°58'510.7
2018-Jun-11 01:00N 51°01' W 005°03'510.6
2018-Jun-11 00:31N 50°57' W 005°08'611.2
2018-Jun-11 00:00N 50°53' W 005°14'611.7
2018-Jun-10 23:31N 50°48' W 005°19'611.7
2018-Jun-10 23:00N 50°43' W 005°25'611.5
2018-Jun-10 22:30N 50°39' W 005°31'611.2
2018-Jun-10 22:00N 50°35' W 005°36'611.2
2018-Jun-10 21:30N 50°30' W 005°41'611.2
2018-Jun-10 21:00N 50°26' W 005°47'611.0
2018-Jun-10 20:30N 50°21' W 005°52'510.7
2018-Jun-10 20:00N 50°16' W 005°54'510.3
2018-Jun-10 19:30N 50°11' W 005°54'  
Track history (hours):
 
Tides and Currents Weather Stations Pressure Air Temp Water Temp Dewpoint Dewpoint Depression Visibility Wind Speed Wind Dir Waves Ship Positions

Acacia Rubra

Last reported at 2018-Jun-19 15:51 UTC. Time now 2018-Jun-19 16:21 UTC.
Position N 36°28' W 009°11'.

Length 107 m; draft 6.3 m.

Type: Tanker. MMSI: 249374000.

Date/timePositionNaut miles runAvg speedWind from/ knotsBaromVisibWave heightAir tempDewpointWater temp
2018-Jun-19 15:51N 36°28' W 009°11'412.3
2018-Jun-19 15:30N 36°29' W 009°16'9911.4
2018-Jun-19 06:53N 38°01' W 010°00'511.9
2018-Jun-19 06:29N 38°06' W 010°02'611.9
2018-Jun-19 06:00N 38°12' W 010°03'612.2
2018-Jun-19 05:28N 38°18' W 010°05'612.1
2018-Jun-19 05:00N 38°23' W 010°07'611.9
2018-Jun-19 04:30N 38°29' W 010°08'612.0
2018-Jun-19 03:58N 38°35' W 010°10'511.8
2018-Jun-19 03:30N 38°41' W 010°12'612.3
2018-Jun-19 03:00N 38°47' W 010°12'612.2
2018-Jun-19 02:30N 38°53' W 010°12'612.0
2018-Jun-19 02:00N 38°59' W 010°12'612.1
2018-Jun-19 01:30N 39°05' W 010°12'612.3
2018-Jun-19 01:00N 39°11' W 010°12'612.2
2018-Jun-19 00:30N 39°17' W 010°12'611.9
2018-Jun-19 00:00N 39°23' W 010°12'612.2
2018-Jun-18 23:30N 39°29' W 010°12'611.8
2018-Jun-18 23:00N 39°35' W 010°12'611.9
2018-Jun-18 22:30N 39°41' W 010°12'612.2
2018-Jun-18 22:00N 39°47' W 010°12'611.9
2018-Jun-18 21:30N 39°53' W 010°12'612.1
2018-Jun-18 21:00N 39°59' W 010°12'911.9
2018-Jun-18 20:16N 40°08' W 010°12'412.4
2018-Jun-18 19:58N 40°12' W 010°12'  
2018-Jun-15 00:43N 48°29' W 006°31'135 8.6
2018-Jun-14 08:59N 50°39' W 005°35'4 9.0
2018-Jun-14 08:30N 50°42' W 005°31'5 8.7
2018-Jun-14 07:56N 50°46' W 005°26'3 8.1
2018-Jun-14 07:30N 50°49' W 005°22'4 7.7
2018-Jun-14 07:00N 50°52' W 005°18'3 7.0
2018-Jun-14 06:30N 50°54' W 005°15'3 6.9
2018-Jun-14 06:00N 50°57' W 005°11'3 6.5
2018-Jun-14 05:30N 50°59' W 005°08'3 6.2
2018-Jun-14 05:00N 51°02' W 005°04'3 6.0
2018-Jun-14 04:30N 51°04' W 005°01'3 5.8
2018-Jun-14 04:00N 51°06' W 004°58'3 5.5
2018-Jun-14 03:28N 51°08' W 004°55'3 5.6
2018-Jun-14 03:00N 51°10' W 004°53'4 6.3
2018-Jun-14 02:25N 51°13' W 004°49'3 6.6
2018-Jun-14 02:00N 51°15' W 004°46'14 8.4
2018-Jun-14 00:18N 51°17' W 004°23'310.4
2018-Jun-14 00:00N 51°17' W 004°18'3613.3
2018-Jun-13 21:17N 51°21' W 003°21'413.7
2018-Jun-13 21:00N 51°22' W 003°15'612.2
2018-Jun-13 20:28N 51°25' W 003°05'612.8
2018-Jun-13 20:01N 51°30' W 003°00'4 4.4
2018-Jun-13 19:11N 51°33' W 002°59'0 1.5
2018-Jun-13 18:53N 51°34' W 002°59'0 0.0
2018-Jun-11 16:44N 51°34' W 002°59'0 1.2
2018-Jun-11 16:27N 51°33' W 002°59'0 0.5
2018-Jun-11 15:39N 51°33' W 002°59'1 2.4
2018-Jun-11 15:24N 51°32' W 002°59'2 6.2
2018-Jun-11 15:00N 51°30' W 002°60'5 8.1
2018-Jun-11 14:24N 51°26' W 003°04'711.4
2018-Jun-11 13:46N 51°22' W 003°13'47 4.7
2018-Jun-11 03:46N 51°17' W 004°28'3 9.9
2018-Jun-11 03:30N 51°17' W 004°32'810.1
2018-Jun-11 02:44N 51°16' W 004°44'311.1
2018-Jun-11 02:30N 51°14' W 004°47'611.1
2018-Jun-11 02:00N 51°10' W 004°53'510.9
2018-Jun-11 01:30N 51°05' W 004°58'510.7
2018-Jun-11 01:00N 51°01' W 005°03'510.6
2018-Jun-11 00:31N 50°57' W 005°08'611.2
2018-Jun-11 00:00N 50°53' W 005°14'611.7
2018-Jun-10 23:31N 50°48' W 005°19'611.7
2018-Jun-10 23:00N 50°43' W 005°25'611.5
2018-Jun-10 22:30N 50°39' W 005°31'611.2
2018-Jun-10 22:00N 50°35' W 005°36'611.2
2018-Jun-10 21:30N 50°30' W 005°41'611.2
2018-Jun-10 21:00N 50°26' W 005°47'611.0
2018-Jun-10 20:30N 50°21' W 005°52'510.7
2018-Jun-10 20:00N 50°16' W 005°54'510.3
2018-Jun-10 19:30N 50°11' W 005°54'  

Dump ship's entire track history